sensor_id;sensor_type;location;lat;lon;timestamp;pressure;altitude;pressure_sealevel;temperature;humidity
4586;BME280;2305;50.118;8.952;2023-02-28T00:01:34;101715.59;;;0.52;100.00
4586;BME280;2305;50.118;8.952;2023-02-28T00:04:03;101716.44;;;0.54;100.00
4586;BME280;2305;50.118;8.952;2023-02-28T00:06:31;101718.16;;;0.54;100.00
4586;BME280;2305;50.118;8.952;2023-02-28T00:08:59;101716.38;;;0.56;100.00
4586;BME280;2305;50.118;8.952;2023-02-28T00:11:28;101722.44;;;0.56;100.00
4586;BME280;2305;50.118;8.952;2023-02-28T00:13:56;101727.56;;;0.59;100.00
4586;BME280;2305;50.118;8.952;2023-02-28T00:16:24;101719.84;;;0.58;100.00
4586;BME280;2305;50.118;8.952;2023-02-28T00:18:53;101717.25;;;0.58;100.00
4586;BME280;2305;50.118;8.952;2023-02-28T00:21:22;101717.28;;;0.55;100.00
4586;BME280;2305;50.118;8.952;2023-02-28T00:23:51;101716.38;;;0.56;100.00
4586;BME280;2305;50.118;8.952;2023-02-28T00:26:19;101717.28;;;0.55;100.00
4586;BME280;2305;50.118;8.952;2023-02-28T00:28:48;101716.47;;;0.53;100.00
4586;BME280;2305;50.118;8.952;2023-02-28T00:31:19;101715.59;;;0.52;100.00
4586;BME280;2305;50.118;8.952;2023-02-28T00:33:47;101715.59;;;0.52;100.00
4586;BME280;2305;50.118;8.952;2023-02-28T00:36:16;101715.59;;;0.52;100.00
4586;BME280;2305;50.118;8.952;2023-02-28T00:38:46;101714.75;;;0.52;100.00
4586;BME280;2305;50.118;8.952;2023-02-28T00:41:14;101720.75;;;0.55;100.00
4586;BME280;2305;50.118;8.952;2023-02-28T00:43:42;101716.47;;;0.51;100.00
4586;BME280;2305;50.118;8.952;2023-02-28T00:46:10;101711.38;;;0.48;100.00
4586;BME280;2305;50.118;8.952;2023-02-28T00:48:39;101723.53;;;0.45;100.00
4586;BME280;2305;50.118;8.952;2023-02-28T00:51:07;101715.72;;;0.46;100.00
4586;BME280;2305;50.118;8.952;2023-02-28T00:53:36;101716.59;;;0.45;100.00
4586;BME280;2305;50.118;8.952;2023-02-28T00:56:06;101720.13;;;0.41;100.00
4586;BME280;2305;50.118;8.952;2023-02-28T00:58:35;101730.53;;;0.40;100.00
4586;BME280;2305;50.118;8.952;2023-02-28T01:01:03;101715.88;;;0.37;100.00
4586;BME280;2305;50.118;8.952;2023-02-28T01:03:31;101722.84;;;0.35;100.00
4586;BME280;2305;50.118;8.952;2023-02-28T01:05:59;101728.03;;;0.35;100.00
4586;BME280;2305;50.118;8.952;2023-02-28T01:08:27;101720.25;;;0.34;100.00
4586;BME280;2305;50.118;8.952;2023-02-28T01:10:56;101721.22;;;0.28;100.00
4586;BME280;2305;50.118;8.952;2023-02-28T01:13:26;101721.25;;;0.27;100.00
4586;BME280;2305;50.118;8.952;2023-02-28T01:15:55;101716.97;;;0.24;100.00
4586;BME280;2305;50.118;8.952;2023-02-28T01:18:24;101720.50;;;0.22;100.00
4586;BME280;2305;50.118;8.952;2023-02-28T01:20:52;101714.50;;;0.18;100.00
4586;BME280;2305;50.118;8.952;2023-02-28T01:23:22;101716.22;;;0.18;100.00
4586;BME280;2305;50.118;8.952;2023-02-28T01:25:52;101712.84;;;0.14;100.00
4586;BME280;2305;50.118;8.952;2023-02-28T01:28:21;101705.13;;;0.11;100.00
4586;BME280;2305;50.118;8.952;2023-02-28T01:30:51;101706.84;;;0.12;100.00
4586;BME280;2305;50.118;8.952;2023-02-28T01:33:19;101703.44;;;0.09;100.00
4586;BME280;2305;50.118;8.952;2023-02-28T01:35:48;101709.53;;;0.06;100.00
4586;BME280;2305;50.118;8.952;2023-02-28T01:38:16;101706.94;;;0.05;100.00
4586;BME280;2305;50.118;8.952;2023-02-28T01:40:49;101706.06;;;0.07;100.00
4586;BME280;2305;50.118;8.952;2023-02-28T01:43:22;101702.59;;;0.07;100.00
4586;BME280;2305;50.118;8.952;2023-02-28T01:45:53;101700.97;;;0.01;100.00
4586;BME280;2305;50.118;8.952;2023-02-28T01:48:28;101696.69;;;-0.01;100.00
4586;BME280;2305;50.118;8.952;2023-02-28T01:51:02;101700.13;;;0.01;100.00
4586;BME280;2305;50.118;8.952;2023-02-28T01:53:34;101710.44;;;0.02;100.00
4586;BME280;2305;50.118;8.952;2023-02-28T01:56:06;101693.25;;;-0.02;100.00
4586;BME280;2305;50.118;8.952;2023-02-28T01:58:37;101698.44;;;-0.02;100.00
4586;BME280;2305;50.118;8.952;2023-02-28T02:01:07;101689.88;;;-0.05;100.00
4586;BME280;2305;50.118;8.952;2023-02-28T02:03:35;101689.88;;;-0.05;100.00
4586;BME280;2305;50.118;8.952;2023-02-28T02:06:04;101692.47;;;-0.07;100.00
4586;BME280;2305;50.118;8.952;2023-02-28T02:08:36;101687.28;;;-0.05;100.00
4586;BME280;2305;50.118;8.952;2023-02-28T02:11:09;101694.22;;;-0.07;100.00
4586;BME280;2305;50.118;8.952;2023-02-28T02:13:53;101694.25;;;-0.10;100.00
4586;BME280;2305;50.118;8.952;2023-02-28T02:16:35;101686.59;;;-0.16;100.00
4586;BME280;2305;50.118;8.952;2023-02-28T02:19:20;101687.44;;;-0.15;100.00
4586;BME280;2305;50.118;8.952;2023-02-28T02:22:45;101693.47;;;-0.15;100.00
4586;BME280;2305;50.118;8.952;2023-02-28T02:25:25;101690.88;;;-0.13;100.00
4586;BME280;2305;50.118;8.952;2023-02-28T02:28:06;101679.69;;;-0.15;100.00
4586;BME280;2305;50.118;8.952;2023-02-28T02:31:13;101678.88;;;-0.17;100.00
4586;BME280;2305;50.118;8.952;2023-02-28T02:34:13;101682.34;;;-0.20;100.00
4586;BME280;2305;50.118;8.952;2023-02-28T02:36:50;101679.72;;;-0.18;100.00
4586;BME280;2305;50.118;8.952;2023-02-28T02:39:25;101676.38;;;-0.23;100.00
4586;BME280;2305;50.118;8.952;2023-02-28T02:42:01;101673.81;;;-0.26;100.00
4586;BME280;2305;50.118;8.952;2023-02-28T02:44:37;101679.00;;;-0.26;100.00
4586;BME280;2305;50.118;8.952;2023-02-28T02:47:09;101679.88;;;-0.27;100.00
4586;BME280;2305;50.118;8.952;2023-02-28T02:49:42;101677.28;;;-0.27;100.00
4586;BME280;2305;50.118;8.952;2023-02-28T02:52:14;101674.69;;;-0.26;100.00
4586;BME280;2305;50.118;8.952;2023-02-28T02:54:46;101679.88;;;-0.29;100.00
4586;BME280;2305;50.118;8.952;2023-02-28T02:57:18;101679.88;;;-0.29;100.00
4586;BME280;2305;50.118;8.952;2023-02-28T02:59:49;101676.47;;;-0.29;100.00
4586;BME280;2305;50.118;8.952;2023-02-28T03:02:21;101685.13;;;-0.32;100.00
4586;BME280;2305;50.118;8.952;2023-02-28T03:04:56;101677.38;;;-0.33;100.00
4586;BME280;2305;50.118;8.952;2023-02-28T03:07:27;101684.25;;;-0.32;100.00
4586;BME280;2305;50.118;8.952;2023-02-28T03:09:56;101673.91;;;-0.32;100.00
4586;BME280;2305;50.118;8.952;2023-02-28T03:12:32;101675.72;;;-0.37;100.00
4586;BME280;2305;50.118;8.952;2023-02-28T03:15:08;101677.44;;;-0.36;100.00
4586;BME280;2305;50.118;8.952;2023-02-28T03:17:57;101673.09;;;-0.34;100.00
4586;BME280;2305;50.118;8.952;2023-02-28T03:20:53;101668.69;;;-0.29;100.00
4586;BME280;2305;50.118;8.952;2023-02-28T03:23:33;101671.34;;;-0.34;100.00
4586;BME280;2305;50.118;8.952;2023-02-28T03:26:13;101666.19;;;-0.34;100.00
4586;BME280;2305;50.118;8.952;2023-02-28T03:28:52;101667.00;;;-0.30;100.00
4586;BME280;2305;50.118;8.952;2023-02-28T03:31:28;101668.72;;;-0.31;100.00
4586;BME280;2305;50.118;8.952;2023-02-28T03:34:02;101666.94;;;-0.29;100.00
4586;BME280;2305;50.118;8.952;2023-02-28T03:36:38;101673.00;;;-0.30;100.00
4586;BME280;2305;50.118;8.952;2023-02-28T03:39:14;101675.59;;;-0.30;100.00
4586;BME280;2305;50.118;8.952;2023-02-28T03:41:49;101676.50;;;-0.32;100.00
4586;BME280;2305;50.118;8.952;2023-02-28T03:44:22;101666.13;;;-0.31;100.00
4586;BME280;2305;50.118;8.952;2023-02-28T03:46:56;101667.00;;;-0.30;100.00
4586;BME280;2305;50.118;8.952;2023-02-28T03:49:30;101673.88;;;-0.29;100.00
4586;BME280;2305;50.118;8.952;2023-02-28T03:52:03;101666.94;;;-0.29;100.00
4586;BME280;2305;50.118;8.952;2023-02-28T03:54:38;101676.38;;;-0.25;100.00
4586;BME280;2305;50.118;8.952;2023-02-28T03:57:11;101669.47;;;-0.24;100.00
4586;BME280;2305;50.118;8.952;2023-02-28T03:59:43;101677.19;;;-0.21;100.00
4586;BME280;2305;50.118;8.952;2023-02-28T04:02:14;101673.63;;;-0.16;100.00
4586;BME280;2305;50.118;8.952;2023-02-28T04:04:45;101677.94;;;-0.15;100.00
4586;BME280;2305;50.118;8.952;2023-02-28T04:07:20;101673.63;;;-0.14;100.00
4586;BME280;2305;50.118;8.952;2023-02-28T04:09:48;101682.19;;;-0.09;100.00
4586;BME280;2305;50.118;8.952;2023-02-28T04:12:16;101675.22;;;-0.06;100.00
4586;BME280;2305;50.118;8.952;2023-02-28T04:14:44;101683.78;;;-0.03;100.00
4586;BME280;2305;50.118;8.952;2023-02-28T04:17:12;101683.75;;;-0.01;100.00
4586;BME280;2305;50.118;8.952;2023-02-28T04:19:44;101685.41;;;0.04;100.00
4586;BME280;2305;50.118;8.952;2023-02-28T04:22:12;101681.91;;;0.05;100.00
4586;BME280;2305;50.118;8.952;2023-02-28T04:24:45;101682.66;;;0.10;100.00
4586;BME280;2305;50.118;8.952;2023-02-28T04:27:13;101676.63;;;0.11;100.00
4586;BME280;2305;50.118;8.952;2023-02-28T04:29:42;101680.03;;;0.13;100.00
4586;BME280;2305;50.118;8.952;2023-02-28T04:32:13;101680.03;;;0.13;100.00
4586;BME280;2305;50.118;8.952;2023-02-28T04:34:42;101682.66;;;0.12;100.00
4586;BME280;2305;50.118;8.952;2023-02-28T04:37:14;101677.44;;;0.13;100.00
4586;BME280;2305;50.118;8.952;2023-02-28T04:39:44;101681.72;;;0.16;100.00
4586;BME280;2305;50.118;8.952;2023-02-28T04:42:13;101675.66;;;0.17;100.00
4586;BME280;2305;50.118;8.952;2023-02-28T04:44:41;101679.06;;;0.20;100.00
4586;BME280;2305;50.118;8.952;2023-02-28T04:47:09;101678.16;;;0.21;100.00
4586;BME280;2305;50.118;8.952;2023-02-28T04:49:37;101679.88;;;0.22;100.00
4586;BME280;2305;50.118;8.952;2023-02-28T04:52:05;101676.38;;;0.25;100.00
4586;BME280;2305;50.118;8.952;2023-02-28T04:54:34;101675.47;;;0.27;100.00
4586;BME280;2305;50.118;8.952;2023-02-28T04:57:03;101667.69;;;0.29;100.00
4586;BME280;2305;50.118;8.952;2023-02-28T04:59:31;101675.38;;;0.33;100.00
4586;BME280;2305;50.118;8.952;2023-02-28T05:01:59;101672.72;;;0.35;100.00
4586;BME280;2305;50.118;8.952;2023-02-28T05:04:34;101677.97;;;0.33;100.00
4586;BME280;2305;50.118;8.952;2023-02-28T05:07:02;101677.19;;;0.27;100.00
4586;BME280;2305;50.118;8.952;2023-02-28T05:09:31;101683.25;;;0.26;100.00
4586;BME280;2305;50.118;8.952;2023-02-28T05:12:02;101677.25;;;0.24;100.00
4586;BME280;2305;50.118;8.952;2023-02-28T05:14:31;101678.16;;;0.21;100.00
4586;BME280;2305;50.118;8.952;2023-02-28T05:17:01;101682.44;;;0.24;100.00
4586;BME280;2305;50.118;8.952;2023-02-28T05:19:29;101683.41;;;0.18;100.00
4586;BME280;2305;50.118;8.952;2023-02-28T05:21:57;101682.63;;;0.15;100.00
4586;BME280;2305;50.118;8.952;2023-02-28T05:24:25;101687.91;;;0.09;100.00
4586;BME280;2305;50.118;8.952;2023-02-28T05:26:54;101685.50;;;-0.02;100.00
4586;BME280;2305;50.118;8.952;2023-02-28T05:29:24;101688.16;;;-0.06;100.00
4586;BME280;2305;50.118;8.952;2023-02-28T05:31:54;101691.63;;;-0.07;100.00
4586;BME280;2305;50.118;8.952;2023-02-28T05:34:22;101695.16;;;-0.11;100.00
4586;BME280;2305;50.118;8.952;2023-02-28T05:36:50;101683.97;;;-0.14;100.00
4586;BME280;2305;50.118;8.952;2023-02-28T05:39:18;101690.03;;;-0.15;100.00
4586;BME280;2305;50.118;8.952;2023-02-28T05:41:46;101690.97;;;-0.19;100.00
4586;BME280;2305;50.118;8.952;2023-02-28T05:44:15;101687.56;;;-0.21;100.00
4586;BME280;2305;50.118;8.952;2023-02-28T05:46:47;101689.25;;;-0.20;100.00
4586;BME280;2305;50.118;8.952;2023-02-28T05:49:16;101693.59;;;-0.21;100.00
4586;BME280;2305;50.118;8.952;2023-02-28T05:51:45;101693.59;;;-0.21;100.00
4586;BME280;2305;50.118;8.952;2023-02-28T05:54:13;101691.84;;;-0.20;100.00
4586;BME280;2305;50.118;8.952;2023-02-28T05:56:41;101699.59;;;-0.19;100.00
4586;BME280;2305;50.118;8.952;2023-02-28T05:59:11;101699.59;;;-0.17;100.00
4586;BME280;2305;50.118;8.952;2023-02-28T06:01:41;101699.59;;;-0.17;100.00
4586;BME280;2305;50.118;8.952;2023-02-28T06:04:17;101704.78;;;-0.20;100.00
4586;BME280;2305;50.118;8.952;2023-02-28T06:06:59;101709.13;;;-0.21;100.00
4586;BME280;2305;50.118;8.952;2023-02-28T06:09:28;101704.78;;;-0.20;100.00
4586;BME280;2305;50.118;8.952;2023-02-28T06:11:58;101699.69;;;-0.23;100.00
4586;BME280;2305;50.118;8.952;2023-02-28T06:14:26;101711.69;;;-0.19;100.00
4586;BME280;2305;50.118;8.952;2023-02-28T06:16:57;101706.56;;;-0.22;100.00
4586;BME280;2305;50.118;8.952;2023-02-28T06:19:27;101716.03;;;-0.21;100.00
4586;BME280;2305;50.118;8.952;2023-02-28T06:21:56;101716.75;;;-0.13;100.00
4586;BME280;2305;50.118;8.952;2023-02-28T06:24:25;101715.94;;;-0.14;100.00
4586;BME280;2305;50.118;8.952;2023-02-28T06:26:55;101715.97;;;-0.17;100.00
4586;BME280;2305;50.118;8.952;2023-02-28T06:29:25;101719.41;;;-0.16;100.00
4586;BME280;2305;50.118;8.952;2023-02-28T06:31:53;101725.41;;;-0.14;100.00
4586;BME280;2305;50.118;8.952;2023-02-28T06:34:22;101727.13;;;-0.13;100.00
4586;BME280;2305;50.118;8.952;2023-02-28T06:36:53;101731.41;;;-0.13;100.00
4586;BME280;2305;50.118;8.952;2023-02-28T06:39:21;101729.69;;;-0.10;100.00
4586;BME280;2305;50.118;8.952;2023-02-28T06:41:49;101740.91;;;-0.12;100.00
4586;BME280;2305;50.118;8.952;2023-02-28T06:44:22;101734.81;;;-0.08;100.00
4586;BME280;2305;50.118;8.952;2023-02-28T06:46:51;101732.16;;;-0.05;100.00
4586;BME280;2305;50.118;8.952;2023-02-28T06:49:20;101744.13;;;0.02;100.00
4586;BME280;2305;50.118;8.952;2023-02-28T06:51:47;101743.22;;;0.05;100.00
4586;BME280;2305;50.118;8.952;2023-02-28T06:54:18;101747.53;;;0.06;100.00
4586;BME280;2305;50.118;8.952;2023-02-28T06:56:46;101746.59;;;0.10;100.00
4586;BME280;2305;50.118;8.952;2023-02-28T06:59:14;101750.88;;;0.12;100.00
4586;BME280;2305;50.118;8.952;2023-02-28T07:01:42;101751.72;;;0.14;100.00
4586;BME280;2305;50.118;8.952;2023-02-28T07:04:10;101759.31;;;0.25;100.00
4586;BME280;2305;50.118;8.952;2023-02-28T07:06:40;101752.22;;;0.34;100.00
4586;BME280;2305;50.118;8.952;2023-02-28T07:09:08;101749.38;;;0.49;100.00
4586;BME280;2305;50.118;8.952;2023-02-28T07:11:37;101758.69;;;0.59;100.00
4586;BME280;2305;50.118;8.952;2023-02-28T07:14:06;101764.53;;;0.70;100.00
4586;BME280;2305;50.118;8.952;2023-02-28T07:16:36;101756.53;;;0.82;100.00
4586;BME280;2305;50.118;8.952;2023-02-28T07:19:05;101758.16;;;0.86;100.00
4586;BME280;2305;50.118;8.952;2023-02-28T07:21:33;101758.16;;;0.88;100.00
4586;BME280;2305;50.118;8.952;2023-02-28T07:24:03;101749.47;;;0.90;100.00
4586;BME280;2305;50.118;8.952;2023-02-28T07:26:32;101753.69;;;0.94;100.00
4586;BME280;2305;50.118;8.952;2023-02-28T07:29:02;101750.19;;;0.95;100.00
4586;BME280;2305;50.118;8.952;2023-02-28T07:31:30;101751.78;;;1.02;100.00
4586;BME280;2305;50.118;8.952;2023-02-28T07:33:58;101747.31;;;1.10;100.00
4586;BME280;2305;50.118;8.952;2023-02-28T07:36:26;101747.25;;;1.13;100.00
4586;BME280;2305;50.118;8.952;2023-02-28T07:38:54;101746.22;;;1.22;100.00
4586;BME280;2305;50.118;8.952;2023-02-28T07:41:25;101744.34;;;1.28;100.00
4586;BME280;2305;50.118;8.952;2023-02-28T07:43:55;101745.78;;;1.41;100.00
4586;BME280;2305;50.118;8.952;2023-02-28T07:46:27;101743.09;;;1.44;100.00
4586;BME280;2305;50.118;8.952;2023-02-28T07:48:56;101743.88;;;1.49;100.00
4586;BME280;2305;50.118;8.952;2023-02-28T07:51:26;101753.31;;;1.53;100.00
4586;BME280;2305;50.118;8.952;2023-02-28T07:53:54;101747.91;;;1.62;100.00
4586;BME280;2305;50.118;8.952;2023-02-28T07:56:23;101755.50;;;1.70;100.00
4586;BME280;2305;50.118;8.952;2023-02-28T07:58:51;101754.47;;;1.78;100.00
4586;BME280;2305;50.118;8.952;2023-02-28T08:01:19;101757.84;;;1.82;100.00
4586;BME280;2305;50.118;8.952;2023-02-28T08:03:49;101750.84;;;1.85;100.00
4586;BME280;2305;50.118;8.952;2023-02-28T08:06:18;101762.78;;;1.92;100.00
4586;BME280;2305;50.118;8.952;2023-02-28T08:08:47;101773.03;;;1.98;100.00
4586;BME280;2305;50.118;8.952;2023-02-28T08:11:16;101765.84;;;2.09;100.00
4586;BME280;2305;50.118;8.952;2023-02-28T08:13:45;101767.34;;;2.19;100.00
4586;BME280;2305;50.118;8.952;2023-02-28T08:16:14;101773.50;;;2.15;100.00
4586;BME280;2305;50.118;8.952;2023-02-28T08:18:44;101765.53;;;2.21;100.00
4586;BME280;2305;50.118;8.952;2023-02-28T08:21:14;101771.47;;;2.28;100.00
4586;BME280;2305;50.118;8.952;2023-02-28T08:23:46;101766.19;;;2.31;100.00
4586;BME280;2305;50.118;8.952;2023-02-28T08:26:18;101759.91;;;2.39;100.00
4586;BME280;2305;50.118;8.952;2023-02-28T08:28:49;101766.56;;;2.49;100.00
4586;BME280;2305;50.118;8.952;2023-02-28T08:34:20;101759.34;;;2.60;100.00
4586;BME280;2305;50.118;8.952;2023-02-28T08:36:49;101759.09;;;2.69;100.00
4586;BME280;2305;50.118;8.952;2023-02-28T08:39:20;101768.44;;;2.76;100.00
4586;BME280;2305;50.118;8.952;2023-02-28T08:41:48;101763.16;;;2.79;100.00
4586;BME280;2305;50.118;8.952;2023-02-28T08:44:31;101757.59;;;2.93;100.00
4586;BME280;2305;50.118;8.952;2023-02-28T08:46:59;101754.81;;;2.99;100.00
4586;BME280;2305;50.118;8.952;2023-02-28T08:49:27;101752.03;;;3.05;100.00
4586;BME280;2305;50.118;8.952;2023-02-28T08:51:57;101749.53;;;3.02;100.00
4586;BME280;2305;50.118;8.952;2023-02-28T08:54:26;101743.22;;;3.10;99.45
4586;BME280;2305;50.118;8.952;2023-02-28T08:56:57;101746.41;;;3.20;99.78
4586;BME280;2305;50.118;8.952;2023-02-28T08:59:25;101758.28;;;3.28;99.50
4586;BME280;2305;50.118;8.952;2023-02-28T09:01:53;101754.66;;;3.34;97.84
4586;BME280;2305;50.118;8.952;2023-02-28T09:04:21;101739.53;;;3.46;95.59
4586;BME280;2305;50.118;8.952;2023-02-28T09:06:51;101740.19;;;3.53;93.53
4586;BME280;2305;50.118;8.952;2023-02-28T09:09:20;101743.81;;;3.76;92.75
4586;BME280;2305;50.118;8.952;2023-02-28T09:11:48;101737.72;;;3.76;90.61
4586;BME280;2305;50.118;8.952;2023-02-28T09:14:17;101742.09;;;3.75;90.10
4586;BME280;2305;50.118;8.952;2023-02-28T09:16:46;101734.88;;;3.83;90.18
4586;BME280;2305;50.118;8.952;2023-02-28T09:19:14;101743.34;;;3.90;87.00
4586;BME280;2305;50.118;8.952;2023-02-28T09:21:42;101740.09;;;3.83;89.23
4586;BME280;2305;50.118;8.952;2023-02-28T09:24:10;101734.13;;;3.80;89.25
4586;BME280;2305;50.118;8.952;2023-02-28T09:26:42;101735.50;;;3.91;85.89
4586;BME280;2305;50.118;8.952;2023-02-28T09:29:22;101734.75;;;3.88;85.01
4586;BME280;2305;50.118;8.952;2023-02-28T09:31:50;101740.00;;;3.86;85.38
4586;BME280;2305;50.118;8.952;2023-02-28T09:34:18;101724.84;;;3.99;84.95
4586;BME280;2305;50.118;8.952;2023-02-28T09:36:46;101736.03;;;4.02;85.46
4586;BME280;2305;50.118;8.952;2023-02-28T09:39:15;101729.78;;;4.06;86.40
4586;BME280;2305;50.118;8.952;2023-02-28T09:41:47;101730.69;;;4.31;82.85
4586;BME280;2305;50.118;8.952;2023-02-28T09:44:22;101737.69;;;4.55;80.49
4586;BME280;2305;50.118;8.952;2023-02-28T09:46:56;101719.56;;;4.75;79.62
4586;BME280;2305;50.118;8.952;2023-02-28T09:49:35;101729.09;;;4.76;76.95
4586;BME280;2305;50.118;8.952;2023-02-28T09:52:07;101725.16;;;4.89;74.48
4586;BME280;2305;50.118;8.952;2023-02-28T09:54:39;101733.88;;;5.12;72.76
4586;BME280;2305;50.118;8.952;2023-02-28T09:57:15;101727.03;;;5.31;74.05
4586;BME280;2305;50.118;8.952;2023-02-28T10:00:03;101727.53;;;5.41;70.58
4586;BME280;2305;50.118;8.952;2023-02-28T10:02:54;101733.88;;;5.57;68.51
4586;BME280;2305;50.118;8.952;2023-02-28T10:05:33;101723.50;;;5.55;67.56
4586;BME280;2305;50.118;8.952;2023-02-28T10:08:10;101727.88;;;5.76;69.03
4586;BME280;2305;50.118;8.952;2023-02-28T10:10:41;101722.84;;;5.93;66.54
4586;BME280;2305;50.118;8.952;2023-02-28T10:13:19;101723.63;;;6.17;64.23
4586;BME280;2305;50.118;8.952;2023-02-28T10:15:52;101722.84;;;6.15;62.08
4586;BME280;2305;50.118;8.952;2023-02-28T10:18:25;101723.66;;;6.37;60.68
4586;BME280;2305;50.118;8.952;2023-02-28T10:20:54;101716.97;;;6.30;59.54
4586;BME280;2305;50.118;8.952;2023-02-28T10:23:27;101733.59;;;6.29;60.22
4586;BME280;2305;50.118;8.952;2023-02-28T10:25:59;101723.03;;;6.30;59.34
4586;BME280;2305;50.118;8.952;2023-02-28T10:28:31;101724.75;;;6.31;60.03
4586;BME280;2305;50.118;8.952;2023-02-28T10:31:00;101723.56;;;6.38;59.68
4586;BME280;2305;50.118;8.952;2023-02-28T10:33:33;101732.81;;;6.47;59.07
4586;BME280;2305;50.118;8.952;2023-02-28T10:36:03;101726.72;;;6.66;56.02
4586;BME280;2305;50.118;8.952;2023-02-28T10:38:34;101741.38;;;6.50;55.63
4586;BME280;2305;50.118;8.952;2023-02-28T10:41:07;101734.47;;;6.49;57.22
4586;BME280;2305;50.118;8.952;2023-02-28T10:43:39;101715.94;;;6.54;56.88
4586;BME280;2305;50.118;8.952;2023-02-28T10:46:14;101723.06;;;6.70;61.28
4586;BME280;2305;50.118;8.952;2023-02-28T10:49:02;101723.44;;;6.81;56.98
4586;BME280;2305;50.118;8.952;2023-02-28T10:51:36;101724.63;;;6.74;56.31
4586;BME280;2305;50.118;8.952;2023-02-28T10:54:05;101724.28;;;6.82;57.09
4586;BME280;2305;50.118;8.952;2023-02-28T10:56:34;101739.53;;;6.52;56.29
4586;BME280;2305;50.118;8.952;2023-02-28T10:59:27;101731.22;;;6.23;58.03
4586;BME280;2305;50.118;8.952;2023-02-28T11:01:57;101734.13;;;6.37;60.03
4586;BME280;2305;50.118;8.952;2023-02-28T11:04:34;101722.59;;;6.61;58.63
4586;BME280;2305;50.118;8.952;2023-02-28T11:07:11;101718.66;;;6.71;59.24
4586;BME280;2305;50.118;8.952;2023-02-28T11:09:48;101731.13;;;6.66;57.97
4586;BME280;2305;50.118;8.952;2023-02-28T11:12:23;101721.16;;;6.54;58.05
4586;BME280;2305;50.118;8.952;2023-02-28T11:14:55;101726.00;;;6.43;58.35
4586;BME280;2305;50.118;8.952;2023-02-28T11:17:26;101721.03;;;6.37;59.46
4586;BME280;2305;50.118;8.952;2023-02-28T11:19:57;101732.00;;;6.25;57.91
4586;BME280;2305;50.118;8.952;2023-02-28T11:22:31;101718.41;;;6.37;59.24
4586;BME280;2305;50.118;8.952;2023-02-28T11:25:07;101709.19;;;6.48;58.81
4586;BME280;2305;50.118;8.952;2023-02-28T11:27:45;101713.50;;;6.69;59.81
4586;BME280;2305;50.118;8.952;2023-02-28T11:30:35;101709.81;;;7.12;57.31
4586;BME280;2305;50.118;8.952;2023-02-28T11:33:21;101709.81;;;7.12;56.18
4586;BME280;2305;50.118;8.952;2023-02-28T11:35:51;101695.88;;;7.11;55.75
4586;BME280;2305;50.118;8.952;2023-02-28T11:38:19;101708.75;;;6.97;53.88
4586;BME280;2305;50.118;8.952;2023-02-28T11:40:53;101695.97;;;6.90;54.63
4586;BME280;2305;50.118;8.952;2023-02-28T11:43:38;101686.16;;;6.95;55.01
4586;BME280;2305;50.118;8.952;2023-02-28T11:46:22;101693.59;;;7.04;55.98
4586;BME280;2305;50.118;8.952;2023-02-28T11:48:58;101693.19;;;7.31;53.54
4586;BME280;2305;50.118;8.952;2023-02-28T11:51:34;101674.53;;;7.56;54.79
4586;BME280;2305;50.118;8.952;2023-02-28T11:54:32;101681.59;;;7.72;53.13
4586;BME280;2305;50.118;8.952;2023-02-28T11:57:14;101670.44;;;7.86;53.82
4586;BME280;2305;50.118;8.952;2023-02-28T11:59:54;101688.34;;;7.95;53.36
4586;BME280;2305;50.118;8.952;2023-02-28T12:02:52;101684.44;;;7.68;52.74
4586;BME280;2305;50.118;8.952;2023-02-28T12:05:29;101682.09;;;7.62;52.91
4586;BME280;2305;50.118;8.952;2023-02-28T12:08:12;101687.56;;;7.57;53.23
4586;BME280;2305;50.118;8.952;2023-02-28T12:10:54;101684.81;;;7.60;52.48
4586;BME280;2305;50.118;8.952;2023-02-28T12:13:30;101683.91;;;7.61;51.72
4586;BME280;2305;50.118;8.952;2023-02-28T12:16:23;101680.25;;;7.82;53.61
4586;BME280;2305;50.118;8.952;2023-02-28T12:19:16;101682.97;;;8.15;52.71
4586;BME280;2305;50.118;8.952;2023-02-28T12:22:19;101676.34;;;8.25;51.91
4586;BME280;2305;50.118;8.952;2023-02-28T12:25:22;101677.28;;;8.41;52.91
4586;BME280;2305;50.118;8.952;2023-02-28T12:27:52;101680.69;;;8.43;50.91
4586;BME280;2305;50.118;8.952;2023-02-28T12:30:22;101674.03;;;8.53;52.71
4586;BME280;2305;50.118;8.952;2023-02-28T12:32:56;101677.47;;;8.70;50.57
4586;BME280;2305;50.118;8.952;2023-02-28T12:35:34;101675.59;;;8.72;50.10
4586;BME280;2305;50.118;8.952;2023-02-28T12:38:12;101666.56;;;8.78;49.88
4586;BME280;2305;50.118;8.952;2023-02-28T12:40:47;101666.91;;;8.72;51.16
4586;BME280;2305;50.118;8.952;2023-02-28T12:43:18;101664.34;;;8.70;50.37
4586;BME280;2305;50.118;8.952;2023-02-28T12:45:50;101663.66;;;8.67;50.43
4586;BME280;2305;50.118;8.952;2023-02-28T12:48:24;101671.78;;;8.62;49.80
4586;BME280;2305;50.118;8.952;2023-02-28T12:50:55;101674.84;;;8.70;50.57
4586;BME280;2305;50.118;8.952;2023-02-28T12:53:27;101669.53;;;8.72;49.90
4586;BME280;2305;50.118;8.952;2023-02-28T12:56:09;101659.03;;;8.87;48.85
4586;BME280;2305;50.118;8.952;2023-02-28T12:58:41;101656.25;;;8.90;50.19
4586;BME280;2305;50.118;8.952;2023-02-28T13:01:36;101653.91;;;9.16;49.20
4586;BME280;2305;50.118;8.952;2023-02-28T13:04:46;101654.84;;;9.15;49.15
4586;BME280;2305;50.118;8.952;2023-02-28T13:10:23;101651.94;;;9.51;49.92
4586;BME280;2305;50.118;8.952;2023-02-28T13:12:53;101659.59;;;9.71;50.79
4586;BME280;2305;50.118;8.952;2023-02-28T13:15:26;101645.59;;;9.70;48.86
4586;BME280;2305;50.118;8.952;2023-02-28T13:17:56;101643.19;;;9.81;48.58
4586;BME280;2305;50.118;8.952;2023-02-28T13:20:34;101638.63;;;9.99;48.55
4586;BME280;2305;50.118;8.952;2023-02-28T13:23:37;101653.41;;;10.01;46.41
4586;BME280;2305;50.118;8.952;2023-02-28T13:26:06;101644.94;;;10.26;47.84
4586;BME280;2305;50.118;8.952;2023-02-28T13:29:02;101635.81;;;10.17;47.29
4586;BME280;2305;50.118;8.952;2023-02-28T13:31:32;101645.72;;;10.42;46.77
4586;BME280;2305;50.118;8.952;2023-02-28T13:34:15;101643.25;;;10.25;46.48
4586;BME280;2305;50.118;8.952;2023-02-28T13:36:43;101640.00;;;10.35;46.05
4586;BME280;2305;50.118;8.952;2023-02-28T13:39:46;101634.09;;;10.60;47.63
4586;BME280;2305;50.118;8.952;2023-02-28T13:42:34;101639.47;;;10.72;44.93
4586;BME280;2305;50.118;8.952;2023-02-28T13:45:22;101638.97;;;10.38;44.97
4586;BME280;2305;50.118;8.952;2023-02-28T13:47:59;101631.59;;;10.29;45.65
4586;BME280;2305;50.118;8.952;2023-02-28T13:50:33;101634.25;;;10.57;49.40